LFPVLFPT

Guest
Details From LFPV - Velizy
To LFPT - Pontoise Cormeilles En Vexin
Flight Number -
Tags generated
Created
Modified
Stats Distance 20 nm / 38 km
Max Altitude 0 ft / 0 m
Waypoints 3
Social Downloads 0
Likes 0
Share VATSIM

Download

Looking for another format? Having issues loading an existing format? Contact us
Advertisement - Login to hide

Notes

Basic altitude profile: - Ascent Rate: 2500ft/min - Ascent Speed: 250kts - Cruise Altitude: 10000ft - Cruise Speed: 250kts - Descent Rate: 1500ft/min - Descent Speed: 250kts

Route

LFPV PON LFPT

ID Type Via Altitude Latitude Longitude Leg Dist Tot Dist Heading (true) Name
O LFPV APT - 0 ft / 0 m 48.77437˚ 2.20161˚ - 0 nm - Velizy
PON VOR - 0 ft / 0 m 49.09608˚ 2.03589˚ 20 nm 20 nm 341° / 341° PONTOISE CORMEILLES EN VEXIN V
O LFPT APT - 0 ft / 0 m 49.09579˚ 2.03558˚ 0 nm 20 nm 214° / 214° Pontoise Cormeilles En Vexin

Altitude Profile

Advertisement - Login to hide

LFPV

Details ICAO LFPV
Name Velizy
Region France
Timezone Europe/Paris (UTC+1.0)
Stats Elevation 584 ft / 178 m (AMSL)
Location 48.774366° 2.201605°
Runways 1
Magnetic Variation 0.547° E

METAR

LFPV 141000Z AUTO 23015KT 9999 BKN022/// BKN028/// BKN033/// ///TCU 06/02 Q1001 TEMPO 23015G30KT 4000 SHRA

Decode

TAF

TAF TAF LFPV 140800Z 1409/1509 23010KT 9999 BKN020 TEMPO 1409/1418 23015G30KT 4000 SHRA SCT020TCU TEMPO 1508/1509 4000 RA BKN005

Decode

Departure Runways

ID Width Length Bearing (true) Bearing (mag) Surface Threshold Offset Overrun Length
09 148 ft / 45 m 5,932 ft / 1,808 m 88.30° 87.75° Asphalt 0 ft / 0 m 436 ft / 133 m
27 148 ft / 45 m 5,932 ft / 1,808 m 268.31° 267.76° Asphalt 0 ft / 0 m 0 ft / 0 m

LFPT

Details ICAO LFPT (POX)
Name Pontoise Cormeilles En Vexin
Region France
Timezone Europe/Paris (UTC+1.0)
Stats Elevation 325 ft / 99 m (AMSL)
Location 49.095793° 2.035583°
Runways 2
Magnetic Variation 0.474° E

METAR

LFPT 141000Z AUTO 23015KT 9999 FEW022 SCT100 05/03 Q1000

Decode

TAF

Not found

Destination Runways

ID Width Length Bearing (true) Bearing (mag) Surface Threshold Offset Overrun Length
05 164 ft / 50 m 5,535 ft / 1,687 m 44.55° 44.08° Asphalt 0 ft / 0 m 0 ft / 0 m
12 164 ft / 50 m 5,403 ft / 1,647 m 118.18° 117.71° Asphalt 197 ft / 60 m 0 ft / 0 m
23 164 ft / 50 m 5,535 ft / 1,687 m 224.57° 224.10° Asphalt 558 ft / 170 m 0 ft / 0 m
30 164 ft / 50 m 5,403 ft / 1,647 m 298.20° 297.73° Asphalt 584 ft / 178 m 0 ft / 0 m

Approach Navaids

Runway Type Ident Frequency Range Bearing (true) Bearing (mag) Slope Elevation
05 Localiser CVN 110.95 MHz 18 nm / 33 km 44.57° 44.09° - 325 ft / 99 m (AMSL)
05 Glidescope CVN 110.95 MHz 10 nm / 19 km 44.56° 44.08° 3.20° 325 ft / 99 m (AMSL)
05 DME CVN 110.95 MHz 18 nm / 33 km - - - 325 ft / 99 m (AMSL)
23 Localiser CVN 108.09 MHz 18 nm / 33 km 224.66° 224.18° - 325 ft / 99 m (AMSL)
23 Glidescope CVN 108.09 MHz 10 nm / 19 km 224.56° 224.08° 3.00° 325 ft / 99 m (AMSL)